CYKG

Kangiqsujuaq (Wakeham Bay) Airport

Code ICAO CYKG
Code IATA
Nom Kangiqsujuaq (Wakeham Bay) Airport
Emplacement Kangiqsujuaq, Quebec, CA
Élévation 517 pieds / 157.6 mètres
Latitude 61.58861111
Longitude -71.92944444
METAR CYKG 122100Z 14005KT 15SM OVC067 09/04 A2969 RMK AS8 WND EST/ LST OBS/ NEXT 131200UTC SLP064
Informations extras Afficher cartes
Piste Longueur Largeur Surface Élévation
15 3520 ft 100 ft GRAVEL 517 ft
33 3520 ft 100 ft GRAVEL 478 ft